Fehn Calais — V2CI3 — position and weather

sailwx.info

Track history (hours):
 
Tides and Currents Weather Stations Pressure Air Temp Water Temp Dewpoint Dewpoint Depression Visibility Wind Speed Wind Dir Waves Ship Positions

Fehn Calais

Last reported at 2014-Sep-16 22:32 UTC. Time now 2014-Sep-22 16:18 UTC.
Position N 50°19' W 001°10'.

Length 82 m; draft 2.8 m.

Type: Ship. MMSI: 305009000.

Date/timePositionNaut miles runAvg speedWind from/ knotsBaromVisibWave heightAir tempDewpointWater temp
2014-Sep-16 22:32N 50°19' W 001°10'2110.8
2014-Sep-16 20:33N 50°25' W 000°38'1411.1
2014-Sep-16 19:19N 50°29' W 000°17'1010.8
2014-Sep-16 18:25N 50°31' W 000°02'12 9.8
2014-Sep-16 17:09N 50°35' E 000°17'6 9.9
2014-Sep-16 16:32N 50°36' E 000°26'9 9.3
2014-Sep-16 15:33N 50°41' E 000°39'9 9.1
2014-Sep-16 14:33N 50°46' E 000°50'22 9.9
2014-Sep-16 12:19N 50°60' E 001°18'911.5
2014-Sep-16 11:30N 51°05' E 001°30'1011.0
2014-Sep-16 10:34N 51°12' E 001°42'1010.1
2014-Sep-16 09:33N 51°21' E 001°50'9 9.1
2014-Sep-16 08:33N 51°29' E 001°56'9 8.5
2014-Sep-16 07:33N 51°37' E 002°02'8 8.2
2014-Sep-16 06:33N 51°45' E 002°07'9 8.6
2014-Sep-16 05:33N 51°53' E 002°10'9 9.4
2014-Sep-16 04:33N 52°02' E 002°10'1010.2
2014-Sep-16 03:33N 52°12' E 002°05'1110.9
2014-Sep-16 02:33N 52°23' E 002°02'1111.3
2014-Sep-16 01:33N 52°34' E 001°58'1211.8
2014-Sep-16 00:33N 52°45' E 001°53'1211.8
2014-Sep-15 23:33N 52°54' E 001°39'1111.4
2014-Sep-15 22:33N 53°02' E 001°27'1110.5
2014-Sep-15 21:33N 53°11' E 001°17'1010.0
2014-Sep-15 20:33N 53°19' E 001°06'23 9.2
2014-Sep-15 18:04N 53°27' E 000°31'5 9.3
2014-Sep-15 17:33N 53°31' E 000°27'6 6.3
2014-Sep-15 16:33N 53°37' E 000°22'0 0.0
2014-Sep-15 15:30N 53°37' E 000°22'0 0.0
2014-Sep-15 14:30N 53°37' E 000°22'0 0.0
2014-Sep-15 13:30N 53°37' E 000°22'0 0.0
2014-Sep-15 12:24N 53°37' E 000°22'0 0.1
2014-Sep-15 11:33N 53°37' E 000°22'0 0.0
2014-Sep-15 10:21N 53°37' E 000°22'0 0.0
2014-Sep-15 07:24N 53°37' E 000°22'0 0.0
2014-Sep-15 06:24N 53°37' E 000°22'0 0.0
2014-Sep-15 05:27N 53°37' E 000°22'0 0.0
2014-Sep-15 04:30N 53°37' E 000°22'0 0.1
2014-Sep-15 02:33N 53°37' E 000°22'0 0.0
2014-Sep-15 01:18N 53°37' E 000°22'0 0.0
2014-Sep-15 00:33N 53°37' E 000°22'0 0.1
2014-Sep-14 23:21N 53°37' E 000°22'0 0.0
2014-Sep-14 22:18N 53°37' E 000°22'0 0.0
2014-Sep-14 21:34N 53°37' E 000°22'0 0.0
2014-Sep-14 20:33N 53°37' E 000°22'0 0.0
2014-Sep-14 18:24N 53°37' E 000°22'0 0.0
2014-Sep-14 17:12N 53°37' E 000°22'0 0.0
2014-Sep-14 16:30N 53°37' E 000°22'0 0.1
2014-Sep-14 15:30N 53°37' E 000°22'0 0.0
2014-Sep-14 14:15N 53°37' E 000°22'0 0.0
2014-Sep-14 13:18N 53°37' E 000°22'0 0.0
2014-Sep-14 12:30N 53°37' E 000°22'0 0.0
2014-Sep-14 11:30N 53°37' E 000°22'0 0.1
2014-Sep-14 10:18N 53°37' E 000°22'0 0.0
2014-Sep-14 09:18N 53°37' E 000°22'0 0.0
2014-Sep-14 07:21N 53°37' E 000°22'0 0.0
2014-Sep-14 05:21N 53°37' E 000°22'0 0.1
2014-Sep-14 04:27N 53°37' E 000°22'0 0.1
2014-Sep-14 03:27N 53°37' E 000°22'0 0.0
2014-Sep-14 02:15N 53°37' E 000°22'0 0.0
2014-Sep-14 01:30N 53°37' E 000°22'0 0.0
2014-Sep-13 20:15N 53°37' E 000°22'0 0.0
2014-Sep-13 19:33N 53°37' E 000°22'0 0.0
2014-Sep-13 18:33N 53°37' E 000°22'0 0.0
2014-Sep-13 17:24N 53°37' E 000°22'0 0.1
2014-Sep-13 16:24N 53°37' E 000°22'0 0.1
2014-Sep-13 14:27N 53°37' E 000°22'0 0.0
2014-Sep-13 13:24N 53°37' E 000°22'0 0.0
2014-Sep-13 12:29N 53°37' E 000°22'0 0.0
2014-Sep-13 11:32N 53°37' E 000°22'0 0.0
2014-Sep-13 10:32N 53°37' E 000°22'0 0.1
2014-Sep-13 09:05N 53°37' E 000°22'0 0.1
2014-Sep-13 08:23N 53°37' E 000°22'0 0.0
2014-Sep-13 07:05N 53°37' E 000°22'0 0.0
2014-Sep-13 06:33N 53°37' E 000°22'0 0.0
2014-Sep-13 05:23N 53°37' E 000°22'0 0.0
2014-Sep-13 04:26N 53°37' E 000°22'0 0.1
2014-Sep-13 03:26N 53°37' E 000°22'0 0.1
2014-Sep-13 02:33N 53°37' E 000°22'0 0.0
2014-Sep-13 01:08N 53°37' E 000°22'0 0.0
2014-Sep-13 00:11N 53°37' E 000°22'0 0.0
2014-Sep-12 23:29N 53°37' E 000°22'0 0.0
2014-Sep-12 22:32N 53°37' E 000°22'0 0.0
2014-Sep-12 21:32N 53°37' E 000°22'0 0.0
2014-Sep-12 19:32N 53°37' E 000°22'0 0.0
2014-Sep-12 18:32N 53°37' E 000°22'0 0.0
2014-Sep-12 17:23N 53°37' E 000°22'0 0.0
2014-Sep-12 16:11N 53°37' E 000°22'0 0.0
2014-Sep-12 15:26N 53°37' E 000°22'0 0.1
2014-Sep-12 14:08N 53°37' E 000°22'0 0.0
2014-Sep-12 13:26N 53°37' E 000°22'0 0.0
2014-Sep-12 12:29N 53°37' E 000°22'0 0.0
2014-Sep-12 11:11N 53°37' E 000°22'0 0.0
2014-Sep-12 10:29N 53°37' E 000°22'0 0.0
2014-Sep-12 09:29N 53°37' E 000°22'0 0.1
2014-Sep-12 08:32N 53°37' E 000°22'0 0.0
2014-Sep-12 07:32N 53°37' E 000°22'0 0.0
2014-Sep-12 06:32N 53°37' E 000°22'0 0.0
2014-Sep-12 05:20N 53°37' E 000°22'0 0.0
2014-Sep-12 04:23N 53°37' E 000°22'0 0.0
2014-Sep-12 03:32N 53°37' E 000°22'0 0.1
2014-Sep-12 02:11N 53°37' E 000°22'0 0.0
2014-Sep-12 01:20N 53°37' E 000°22'0 0.0
2014-Sep-12 00:26N 53°37' E 000°22'0 0.0
2014-Sep-11 23:26N 53°37' E 000°22'0 0.0
2014-Sep-11 22:14N 53°37' E 000°22'0 0.0
2014-Sep-11 21:29N 53°37' E 000°22'0 0.1
2014-Sep-11 20:26N 53°37' E 000°22'0 0.1
2014-Sep-11 19:29N 53°37' E 000°22'0 0.0
2014-Sep-11 18:32N 53°37' E 000°22'0 0.0
2014-Sep-11 17:17N 53°37' E 000°22'0 0.0
2014-Sep-11 16:32N 53°37' E 000°22'0 0.0
2014-Sep-11 15:05N 53°37' E 000°22'0 0.0
2014-Sep-11 14:32N 53°37' E 000°22'0 0.1
2014-Sep-11 13:32N 53°37' E 000°22'0 0.0
2014-Sep-11 12:32N 53°37' E 000°22'0 0.0
2014-Sep-11 11:23N 53°37' E 000°22'0 0.0
2014-Sep-11 10:23N 53°37' E 000°22'0 0.0
2014-Sep-11 09:26N 53°37' E 000°22'0 0.1
2014-Sep-11 08:26N 53°37' E 000°22'0 0.1
2014-Sep-11 07:26N 53°37' E 000°22'0 0.0
2014-Sep-11 06:14N 53°37' E 000°22'0 0.0
2014-Sep-11 05:14N 53°37' E 000°22'0 0.0
2014-Sep-11 04:17N 53°37' E 000°22'0 0.0
2014-Sep-11 03:29N 53°37' E 000°22'0 0.0
2014-Sep-11 02:32N 53°37' E 000°22'0 0.1
2014-Sep-11 01:32N 53°37' E 000°22'0 0.0
2014-Sep-11 00:20N 53°37' E 000°22'0 0.0
2014-Sep-10 23:23N 53°37' E 000°22'0 0.0
2014-Sep-10 22:32N 53°37' E 000°22'0 0.0
2014-Sep-10 21:20N 53°37' E 000°22'0 0.0
2014-Sep-10 20:26N 53°37' E 000°22'0 0.1
2014-Sep-10 19:23N 53°37' E 000°22'0 0.0
2014-Sep-10 18:11N 53°37' E 000°22'0 0.0
2014-Sep-10 17:26N 53°37' E 000°22'0 0.0
2014-Sep-10 16:32N 53°37' E 000°22'0 0.0
2014-Sep-10 15:14N 53°37' E 000°22'0 0.0
2014-Sep-10 14:29N 53°37' E 000°22'0 0.1
2014-Sep-10 13:14N 53°37' E 000°22'0 0.0
2014-Sep-10 12:29N 53°37' E 000°22'0 0.0
2014-Sep-10 11:29N 53°37' E 000°22'0 0.0
2014-Sep-10 10:20N 53°37' E 000°22'0 0.0
2014-Sep-10 09:32N 53°37' E 000°22'0 0.0
2014-Sep-10 08:08N 53°37' E 000°22'0 0.1
2014-Sep-10 07:08N 53°37' E 000°22'0 0.0
2014-Sep-10 06:26N 53°37' E 000°22'0 0.0
2014-Sep-10 05:23N 53°37' E 000°22'0 0.0
2014-Sep-10 04:23N 53°37' E 000°22'0 0.0
2014-Sep-10 03:11N 53°37' E 000°22'0 0.0
2014-Sep-10 02:11N 53°37' E 000°22'0 0.1
2014-Sep-10 01:29N 53°37' E 000°22'0 0.1
2014-Sep-10 00:32N 53°37' E 000°22'0 0.0
2014-Sep-09 23:23N 53°37' E 000°22'0 0.0
2014-Sep-09 22:29N 53°37' E 000°22'0 0.0
2014-Sep-09 21:29N 53°37' E 000°22'0 0.0
2014-Sep-09 20:29N 53°37' E 000°22'0 0.1
2014-Sep-09 19:05N 53°37' E 000°22'0 0.2
2014-Sep-09 18:32N 53°37' E 000°22'0 0.0
2014-Sep-09 15:26N 53°37' E 000°22'0 0.0
2014-Sep-09 14:26N 53°37' E 000°22'0 0.1
2014-Sep-09 13:29N 53°37' E 000°22'0 0.1
2014-Sep-09 12:26N 53°37' E 000°22'0 0.0
2014-Sep-09 11:29N 53°37' E 000°22'0 0.0
2014-Sep-09 10:29N 53°37' E 000°22'0 0.0
2014-Sep-09 09:32N 53°37' E 000°22'0 0.0
2014-Sep-09 08:17N 53°37' E 000°22'0 0.0
2014-Sep-09 07:32N 53°37' E 000°22'0 0.1
2014-Sep-09 06:32N 53°37' E 000°22'0 0.0
2014-Sep-09 04:20N 53°37' E 000°22'0 0.0
2014-Sep-09 03:23N 53°37' E 000°22'0 0.0
2014-Sep-09 02:08N 53°37' E 000°22'0 0.0
2014-Sep-09 01:29N 53°37' E 000°22'0 0.0
2014-Sep-09 00:23N 53°37' E 000°22'0 0.2
2014-Sep-08 23:29N 53°37' E 000°22'0 0.0
2014-Sep-08 22:26N 53°37' E 000°22'0 0.0
2014-Sep-08 21:26N 53°37' E 000°22'0 0.0
2014-Sep-08 20:32N 53°37' E 000°22'0 0.0
2014-Sep-08 19:32N 53°37' E 000°22'0 0.1
2014-Sep-08 17:20N 53°37' E 000°22'0 0.0
2014-Sep-08 16:20N 53°37' E 000°22'0 0.0
2014-Sep-08 15:20N 53°37' E 000°22'0 0.0
2014-Sep-08 14:23N 53°37' E 000°22'0 0.0
2014-Sep-08 12:26N 53°37' E 000°22'0 0.1
2014-Sep-08 11:11N 53°37' E 000°22'0 0.0
2014-Sep-08 10:29N 53°37' E 000°22'0 0.0
2014-Sep-08 09:26N 53°37' E 000°22'0 0.0
2014-Sep-08 08:32N 53°37' E 000°22'0 0.0
2014-Sep-08 07:11N 53°37' E 000°22'0 0.1
2014-Sep-08 06:32N 53°37' E 000°22'0 0.1
2014-Sep-08 05:32N 53°37' E 000°22'0 0.0
2014-Sep-08 04:14N 53°37' E 000°22'0 0.0
2014-Sep-08 03:29N 53°37' E 000°22'0 0.0
2014-Sep-08 02:29N 53°37' E 000°22'0 0.0
2014-Sep-08 01:17N 53°37' E 000°22'0 0.1
2014-Sep-08 00:20N 53°37' E 000°22'0 0.1
2014-Sep-07 23:23N 53°37' E 000°22'0 0.0
2014-Sep-07 21:23N 53°37' E 000°22'0 0.0
2014-Sep-07 20:23N 53°37' E 000°22'0 0.0
2014-Sep-07 19:11N 53°37' E 000°22'0 0.0
2014-Sep-07 18:32N 53°37' E 000°22'0 0.1
2014-Sep-07 17:26N 53°37' E 000°22'0 0.0
2014-Sep-07 16:26N 53°37' E 000°22'0 0.0
2014-Sep-07 14:29N 53°37' E 000°22'0 0.0
2014-Sep-07 13:23N 53°37' E 000°22'0 0.0
2014-Sep-07 12:32N 53°37' E 000°22'0 0.0
2014-Sep-07 11:30N 53°37' E 000°22'0 0.1
2014-Sep-07 09:29N 53°37' E 000°22'0 0.0
2014-Sep-07 08:32N 53°37' E 000°22'0 0.0
2014-Sep-07 07:32N 53°37' E 000°22'0 0.1
2014-Sep-07 06:23N 53°37' E 000°22'0 0.1
2014-Sep-07 05:23N 53°37' E 000°22'0 0.1
2014-Sep-07 04:29N 53°37' E 000°22'0 0.0
2014-Sep-07 03:26N 53°37' E 000°22'0 0.0
2014-Sep-07 02:26N 53°37' E 000°22'0 0.0
2014-Sep-07 01:32N 53°37' E 000°22'0 0.0
2014-Sep-07 00:32N 53°37' E 000°22'0 0.0
2014-Sep-06 23:29N 53°37' E 000°22'  
Track history (hours):
 
Tides and Currents Weather Stations Pressure Air Temp Water Temp Dewpoint Dewpoint Depression Visibility Wind Speed Wind Dir Waves Ship Positions

Fehn Calais

Last reported at 2014-Sep-16 22:32 UTC. Time now 2014-Sep-22 16:18 UTC.
Position N 50°19' W 001°10'.

Length 82 m; draft 2.8 m.

Type: Ship. MMSI: 305009000.

Date/timePositionNaut miles runAvg speedWind from/ knotsBaromVisibWave heightAir tempDewpointWater temp
2014-Sep-16 22:32N 50°19' W 001°10'2110.8
2014-Sep-16 20:33N 50°25' W 000°38'1411.1
2014-Sep-16 19:19N 50°29' W 000°17'1010.8
2014-Sep-16 18:25N 50°31' W 000°02'12 9.8
2014-Sep-16 17:09N 50°35' E 000°17'6 9.9
2014-Sep-16 16:32N 50°36' E 000°26'9 9.3
2014-Sep-16 15:33N 50°41' E 000°39'9 9.1
2014-Sep-16 14:33N 50°46' E 000°50'22 9.9
2014-Sep-16 12:19N 50°60' E 001°18'911.5
2014-Sep-16 11:30N 51°05' E 001°30'1011.0
2014-Sep-16 10:34N 51°12' E 001°42'1010.1
2014-Sep-16 09:33N 51°21' E 001°50'9 9.1
2014-Sep-16 08:33N 51°29' E 001°56'9 8.5
2014-Sep-16 07:33N 51°37' E 002°02'8 8.2
2014-Sep-16 06:33N 51°45' E 002°07'9 8.6
2014-Sep-16 05:33N 51°53' E 002°10'9 9.4
2014-Sep-16 04:33N 52°02' E 002°10'1010.2
2014-Sep-16 03:33N 52°12' E 002°05'1110.9
2014-Sep-16 02:33N 52°23' E 002°02'1111.3
2014-Sep-16 01:33N 52°34' E 001°58'1211.8
2014-Sep-16 00:33N 52°45' E 001°53'1211.8
2014-Sep-15 23:33N 52°54' E 001°39'1111.4
2014-Sep-15 22:33N 53°02' E 001°27'1110.5
2014-Sep-15 21:33N 53°11' E 001°17'1010.0
2014-Sep-15 20:33N 53°19' E 001°06'23 9.2
2014-Sep-15 18:04N 53°27' E 000°31'5 9.3
2014-Sep-15 17:33N 53°31' E 000°27'6 6.3
2014-Sep-15 16:33N 53°37' E 000°22'0 0.0
2014-Sep-15 15:30N 53°37' E 000°22'0 0.0
2014-Sep-15 14:30N 53°37' E 000°22'0 0.0
2014-Sep-15 13:30N 53°37' E 000°22'0 0.0
2014-Sep-15 12:24N 53°37' E 000°22'0 0.1
2014-Sep-15 11:33N 53°37' E 000°22'0 0.0
2014-Sep-15 10:21N 53°37' E 000°22'0 0.0
2014-Sep-15 07:24N 53°37' E 000°22'0 0.0
2014-Sep-15 06:24N 53°37' E 000°22'0 0.0
2014-Sep-15 05:27N 53°37' E 000°22'0 0.0
2014-Sep-15 04:30N 53°37' E 000°22'0 0.1
2014-Sep-15 02:33N 53°37' E 000°22'0 0.0
2014-Sep-15 01:18N 53°37' E 000°22'0 0.0
2014-Sep-15 00:33N 53°37' E 000°22'0 0.1
2014-Sep-14 23:21N 53°37' E 000°22'0 0.0
2014-Sep-14 22:18N 53°37' E 000°22'0 0.0
2014-Sep-14 21:34N 53°37' E 000°22'0 0.0
2014-Sep-14 20:33N 53°37' E 000°22'0 0.0
2014-Sep-14 18:24N 53°37' E 000°22'0 0.0
2014-Sep-14 17:12N 53°37' E 000°22'0 0.0
2014-Sep-14 16:30N 53°37' E 000°22'0 0.1
2014-Sep-14 15:30N 53°37' E 000°22'0 0.0
2014-Sep-14 14:15N 53°37' E 000°22'0 0.0
2014-Sep-14 13:18N 53°37' E 000°22'0 0.0
2014-Sep-14 12:30N 53°37' E 000°22'0 0.0
2014-Sep-14 11:30N 53°37' E 000°22'0 0.1
2014-Sep-14 10:18N 53°37' E 000°22'0 0.0
2014-Sep-14 09:18N 53°37' E 000°22'0 0.0
2014-Sep-14 07:21N 53°37' E 000°22'0 0.0
2014-Sep-14 05:21N 53°37' E 000°22'0 0.1
2014-Sep-14 04:27N 53°37' E 000°22'0 0.1
2014-Sep-14 03:27N 53°37' E 000°22'0 0.0
2014-Sep-14 02:15N 53°37' E 000°22'0 0.0
2014-Sep-14 01:30N 53°37' E 000°22'0 0.0
2014-Sep-13 20:15N 53°37' E 000°22'0 0.0
2014-Sep-13 19:33N 53°37' E 000°22'0 0.0
2014-Sep-13 18:33N 53°37' E 000°22'0 0.0
2014-Sep-13 17:24N 53°37' E 000°22'0 0.1
2014-Sep-13 16:24N 53°37' E 000°22'0 0.1
2014-Sep-13 14:27N 53°37' E 000°22'0 0.0
2014-Sep-13 13:24N 53°37' E 000°22'0 0.0
2014-Sep-13 12:29N 53°37' E 000°22'0 0.0
2014-Sep-13 11:32N 53°37' E 000°22'0 0.0
2014-Sep-13 10:32N 53°37' E 000°22'0 0.1
2014-Sep-13 09:05N 53°37' E 000°22'0 0.1
2014-Sep-13 08:23N 53°37' E 000°22'0 0.0
2014-Sep-13 07:05N 53°37' E 000°22'0 0.0
2014-Sep-13 06:33N 53°37' E 000°22'0 0.0
2014-Sep-13 05:23N 53°37' E 000°22'0 0.0
2014-Sep-13 04:26N 53°37' E 000°22'0 0.1
2014-Sep-13 03:26N 53°37' E 000°22'0 0.1
2014-Sep-13 02:33N 53°37' E 000°22'0 0.0
2014-Sep-13 01:08N 53°37' E 000°22'0 0.0
2014-Sep-13 00:11N 53°37' E 000°22'0 0.0
2014-Sep-12 23:29N 53°37' E 000°22'0 0.0
2014-Sep-12 22:32N 53°37' E 000°22'0 0.0
2014-Sep-12 21:32N 53°37' E 000°22'0 0.0
2014-Sep-12 19:32N 53°37' E 000°22'0 0.0
2014-Sep-12 18:32N 53°37' E 000°22'0 0.0
2014-Sep-12 17:23N 53°37' E 000°22'0 0.0
2014-Sep-12 16:11N 53°37' E 000°22'0 0.0
2014-Sep-12 15:26N 53°37' E 000°22'0 0.1
2014-Sep-12 14:08N 53°37' E 000°22'0 0.0
2014-Sep-12 13:26N 53°37' E 000°22'0 0.0
2014-Sep-12 12:29N 53°37' E 000°22'0 0.0
2014-Sep-12 11:11N 53°37' E 000°22'0 0.0
2014-Sep-12 10:29N 53°37' E 000°22'0 0.0
2014-Sep-12 09:29N 53°37' E 000°22'0 0.1
2014-Sep-12 08:32N 53°37' E 000°22'0 0.0
2014-Sep-12 07:32N 53°37' E 000°22'0 0.0
2014-Sep-12 06:32N 53°37' E 000°22'0 0.0
2014-Sep-12 05:20N 53°37' E 000°22'0 0.0
2014-Sep-12 04:23N 53°37' E 000°22'0 0.0
2014-Sep-12 03:32N 53°37' E 000°22'0 0.1
2014-Sep-12 02:11N 53°37' E 000°22'0 0.0
2014-Sep-12 01:20N 53°37' E 000°22'0 0.0
2014-Sep-12 00:26N 53°37' E 000°22'0 0.0
2014-Sep-11 23:26N 53°37' E 000°22'0 0.0
2014-Sep-11 22:14N 53°37' E 000°22'0 0.0
2014-Sep-11 21:29N 53°37' E 000°22'0 0.1
2014-Sep-11 20:26N 53°37' E 000°22'0 0.1
2014-Sep-11 19:29N 53°37' E 000°22'0 0.0
2014-Sep-11 18:32N 53°37' E 000°22'0 0.0
2014-Sep-11 17:17N 53°37' E 000°22'0 0.0
2014-Sep-11 16:32N 53°37' E 000°22'0 0.0
2014-Sep-11 15:05N 53°37' E 000°22'0 0.0
2014-Sep-11 14:32N 53°37' E 000°22'0 0.1
2014-Sep-11 13:32N 53°37' E 000°22'0 0.0
2014-Sep-11 12:32N 53°37' E 000°22'0 0.0
2014-Sep-11 11:23N 53°37' E 000°22'0 0.0
2014-Sep-11 10:23N 53°37' E 000°22'0 0.0
2014-Sep-11 09:26N 53°37' E 000°22'0 0.1
2014-Sep-11 08:26N 53°37' E 000°22'0 0.1
2014-Sep-11 07:26N 53°37' E 000°22'0 0.0
2014-Sep-11 06:14N 53°37' E 000°22'0 0.0
2014-Sep-11 05:14N 53°37' E 000°22'0 0.0
2014-Sep-11 04:17N 53°37' E 000°22'0 0.0
2014-Sep-11 03:29N 53°37' E 000°22'0 0.0
2014-Sep-11 02:32N 53°37' E 000°22'0 0.1
2014-Sep-11 01:32N 53°37' E 000°22'0 0.0
2014-Sep-11 00:20N 53°37' E 000°22'0 0.0
2014-Sep-10 23:23N 53°37' E 000°22'0 0.0
2014-Sep-10 22:32N 53°37' E 000°22'0 0.0
2014-Sep-10 21:20N 53°37' E 000°22'0 0.0
2014-Sep-10 20:26N 53°37' E 000°22'0 0.1
2014-Sep-10 19:23N 53°37' E 000°22'0 0.0
2014-Sep-10 18:11N 53°37' E 000°22'0 0.0
2014-Sep-10 17:26N 53°37' E 000°22'0 0.0
2014-Sep-10 16:32N 53°37' E 000°22'0 0.0
2014-Sep-10 15:14N 53°37' E 000°22'0 0.0
2014-Sep-10 14:29N 53°37' E 000°22'0 0.1
2014-Sep-10 13:14N 53°37' E 000°22'0 0.0
2014-Sep-10 12:29N 53°37' E 000°22'0 0.0
2014-Sep-10 11:29N 53°37' E 000°22'0 0.0
2014-Sep-10 10:20N 53°37' E 000°22'0 0.0
2014-Sep-10 09:32N 53°37' E 000°22'0 0.0
2014-Sep-10 08:08N 53°37' E 000°22'0 0.1
2014-Sep-10 07:08N 53°37' E 000°22'0 0.0
2014-Sep-10 06:26N 53°37' E 000°22'0 0.0
2014-Sep-10 05:23N 53°37' E 000°22'0 0.0
2014-Sep-10 04:23N 53°37' E 000°22'0 0.0
2014-Sep-10 03:11N 53°37' E 000°22'0 0.0
2014-Sep-10 02:11N 53°37' E 000°22'0 0.1
2014-Sep-10 01:29N 53°37' E 000°22'0 0.1
2014-Sep-10 00:32N 53°37' E 000°22'0 0.0
2014-Sep-09 23:23N 53°37' E 000°22'0 0.0
2014-Sep-09 22:29N 53°37' E 000°22'0 0.0
2014-Sep-09 21:29N 53°37' E 000°22'0 0.0
2014-Sep-09 20:29N 53°37' E 000°22'0 0.1
2014-Sep-09 19:05N 53°37' E 000°22'0 0.2
2014-Sep-09 18:32N 53°37' E 000°22'0 0.0
2014-Sep-09 15:26N 53°37' E 000°22'0 0.0
2014-Sep-09 14:26N 53°37' E 000°22'0 0.1
2014-Sep-09 13:29N 53°37' E 000°22'0 0.1
2014-Sep-09 12:26N 53°37' E 000°22'0 0.0
2014-Sep-09 11:29N 53°37' E 000°22'0 0.0
2014-Sep-09 10:29N 53°37' E 000°22'0 0.0
2014-Sep-09 09:32N 53°37' E 000°22'0 0.0
2014-Sep-09 08:17N 53°37' E 000°22'0 0.0
2014-Sep-09 07:32N 53°37' E 000°22'0 0.1
2014-Sep-09 06:32N 53°37' E 000°22'0 0.0
2014-Sep-09 04:20N 53°37' E 000°22'0 0.0
2014-Sep-09 03:23N 53°37' E 000°22'0 0.0
2014-Sep-09 02:08N 53°37' E 000°22'0 0.0
2014-Sep-09 01:29N 53°37' E 000°22'0 0.0
2014-Sep-09 00:23N 53°37' E 000°22'0 0.2
2014-Sep-08 23:29N 53°37' E 000°22'0 0.0
2014-Sep-08 22:26N 53°37' E 000°22'0 0.0
2014-Sep-08 21:26N 53°37' E 000°22'0 0.0
2014-Sep-08 20:32N 53°37' E 000°22'0 0.0
2014-Sep-08 19:32N 53°37' E 000°22'0 0.1
2014-Sep-08 17:20N 53°37' E 000°22'0 0.0
2014-Sep-08 16:20N 53°37' E 000°22'0 0.0
2014-Sep-08 15:20N 53°37' E 000°22'0 0.0
2014-Sep-08 14:23N 53°37' E 000°22'0 0.0
2014-Sep-08 12:26N 53°37' E 000°22'0 0.1
2014-Sep-08 11:11N 53°37' E 000°22'0 0.0
2014-Sep-08 10:29N 53°37' E 000°22'0 0.0
2014-Sep-08 09:26N 53°37' E 000°22'0 0.0
2014-Sep-08 08:32N 53°37' E 000°22'0 0.0
2014-Sep-08 07:11N 53°37' E 000°22'0 0.1
2014-Sep-08 06:32N 53°37' E 000°22'0 0.1
2014-Sep-08 05:32N 53°37' E 000°22'0 0.0
2014-Sep-08 04:14N 53°37' E 000°22'0 0.0
2014-Sep-08 03:29N 53°37' E 000°22'0 0.0
2014-Sep-08 02:29N 53°37' E 000°22'0 0.0
2014-Sep-08 01:17N 53°37' E 000°22'0 0.1
2014-Sep-08 00:20N 53°37' E 000°22'0 0.1
2014-Sep-07 23:23N 53°37' E 000°22'0 0.0
2014-Sep-07 21:23N 53°37' E 000°22'0 0.0
2014-Sep-07 20:23N 53°37' E 000°22'0 0.0
2014-Sep-07 19:11N 53°37' E 000°22'0 0.0
2014-Sep-07 18:32N 53°37' E 000°22'0 0.1
2014-Sep-07 17:26N 53°37' E 000°22'0 0.0
2014-Sep-07 16:26N 53°37' E 000°22'0 0.0
2014-Sep-07 14:29N 53°37' E 000°22'0 0.0
2014-Sep-07 13:23N 53°37' E 000°22'0 0.0
2014-Sep-07 12:32N 53°37' E 000°22'0 0.0
2014-Sep-07 11:30N 53°37' E 000°22'0 0.1
2014-Sep-07 09:29N 53°37' E 000°22'0 0.0
2014-Sep-07 08:32N 53°37' E 000°22'0 0.0
2014-Sep-07 07:32N 53°37' E 000°22'0 0.1
2014-Sep-07 06:23N 53°37' E 000°22'0 0.1
2014-Sep-07 05:23N 53°37' E 000°22'0 0.1
2014-Sep-07 04:29N 53°37' E 000°22'0 0.0
2014-Sep-07 03:26N 53°37' E 000°22'0 0.0
2014-Sep-07 02:26N 53°37' E 000°22'0 0.0
2014-Sep-07 01:32N 53°37' E 000°22'0 0.0
2014-Sep-07 00:32N 53°37' E 000°22'0 0.0
2014-Sep-06 23:29N 53°37' E 000°22'  

Dump ship's entire track history